Time;durP1;ratioP1;P1;durP2;ratioP2;P2;SDS_P1;SDS_P2;PMS_P1;PMS_P2;Temp;Humidity;BMP_temperature;BMP_pressure;BME280_temperature;BME280_humidity;BME280_pressure;Samples;Min_cycle;Max_cycle;Signal;HPM_P1;HPM_P2
2022/07/25 00:03:00;;;;;;;2.28;2.28;;;18.70;99.90;;;;;;6310587;28;20294;-66
2022/07/25 00:06:08;;;;;;;2.70;2.60;;;18.70;99.90;;;;;;6311426;28;20458;-67
2022/07/25 00:09:23;;;;;;;2.67;2.58;;;18.70;99.90;;;;;;6310585;28;20294;-67
2022/07/25 00:12:29;;;;;;;2.83;2.65;;;18.80;99.90;;;;;;6311256;28;20298;-67
2022/07/25 00:15:35;;;;;;;2.88;2.67;;;18.80;99.90;;;;;;6310834;28;20270;-67
2022/07/25 00:18:41;;;;;;;2.53;2.42;;;18.70;99.90;;;;;;6309799;28;20294;-67
2022/07/25 00:21:46;;;;;;;2.60;2.45;;;18.70;99.90;;;;;;6310738;28;20294;-67
2022/07/25 00:24:52;;;;;;;2.80;2.70;;;18.70;99.90;;;;;;6310584;28;20266;-67
2022/07/25 00:27:57;;;;;;;2.65;2.45;;;18.70;99.90;;;;;;6310521;28;20471;-67
2022/07/25 00:31:04;;;;;;;2.63;2.63;;;18.70;99.90;;;;;;6310961;28;20270;-67
2022/07/25 00:34:10;;;;;;;2.90;2.67;;;18.70;99.90;;;;;;6310539;28;20294;-67
2022/07/25 00:37:16;;;;;;;3.65;2.70;;;18.70;99.90;;;;;;6310508;28;20306;-67
2022/07/25 00:40:21;;;;;;;2.97;2.95;;;18.60;99.90;;;;;;6334184;28;20492;-67
2022/07/25 00:43:27;;;;;;;2.88;2.70;;;18.60;99.90;;;;;;6335507;28;20600;-67
2022/07/25 00:46:33;;;;;;;2.63;2.50;;;18.70;99.90;;;;;;6335108;28;20278;-67
2022/07/25 00:49:39;;;;;;;2.78;2.78;;;18.70;99.90;;;;;;6335716;28;20548;-67
2022/07/25 00:52:44;;;;;;;2.72;2.53;;;18.70;99.90;;;;;;6334937;28;20509;-67
2022/07/25 00:55:50;;;;;;;2.40;2.40;;;18.70;99.90;;;;;;6335127;28;20305;-67
2022/07/25 00:58:56;;;;;;;2.78;2.67;;;18.70;99.90;;;;;;6335188;28;20310;-67
2022/07/25 01:02:02;;;;;;;3.03;2.53;;;18.70;99.90;;;;;;6334774;28;20461;-67
2022/07/25 01:05:09;;;;;;;2.30;2.30;;;18.70;99.90;;;;;;6335120;28;20269;-67
2022/07/25 01:08:16;;;;;;;2.47;2.45;;;18.80;99.90;;;;;;6335072;28;20305;-67
2022/07/25 01:11:22;;;;;;;6.38;2.90;;;18.80;99.90;;;;;;6310168;28;20267;-69
2022/07/25 01:14:28;;;;;;;2.50;2.40;;;18.80;99.90;;;;;;6310148;28;20270;-67
2022/07/25 01:17:34;;;;;;;2.47;2.47;;;18.70;99.90;;;;;;6309451;28;20487;-66
2022/07/25 01:20:41;;;;;;;2.33;2.25;;;18.80;99.90;;;;;;6309828;28;20270;-67
2022/07/25 01:23:46;;;;;;;2.90;2.63;;;18.80;99.90;;;;;;6309625;28;20618;-68
2022/07/25 01:26:52;;;;;;;2.25;2.25;;;18.90;99.90;;;;;;6309587;28;20286;-67
2022/07/25 01:29:57;;;;;;;2.72;2.63;;;18.90;99.90;;;;;;6309480;28;20271;-67
2022/07/25 01:33:02;;;;;;;2.40;2.30;;;18.90;99.90;;;;;;6313554;28;20471;-66
2022/07/25 01:36:13;;;;;;;2.88;2.75;;;18.80;99.90;;;;;;6314267;28;20291;-68
2022/07/25 01:39:18;;;;;;;2.50;2.50;;;18.70;99.90;;;;;;6314510;28;20314;-68
2022/07/25 01:42:23;;;;;;;2.45;2.42;;;18.70;99.90;;;;;;6314226;28;20613;-66
2022/07/25 01:45:29;;;;;;;2.67;2.58;;;18.70;99.90;;;;;;6314608;28;20271;-67
2022/07/25 01:48:34;;;;;;;2.63;2.53;;;18.70;99.90;;;;;;6314209;28;20302;-67
2022/07/25 01:51:41;;;;;;;2.70;2.50;;;18.70;99.90;;;;;;6313827;28;20329;-67
2022/07/25 01:54:47;;;;;;;3.55;2.50;;;18.70;99.90;;;;;;6314263;28;20549;-67
2022/07/25 01:57:53;;;;;;;4.40;2.70;;;18.70;99.90;;;;;;6313833;28;20294;-67
2022/07/25 02:00:58;;;;;;;2.50;2.50;;;18.70;99.90;;;;;;6313987;28;20347;-67
2022/07/25 02:04:04;;;;;;;2.97;2.88;;;18.60;99.90;;;;;;6313467;28;20299;-67
2022/07/25 02:07:12;;;;;;;2.80;2.70;;;18.70;99.90;;;;;;6313627;28;20289;-67
2022/07/25 02:10:18;;;;;;;2.78;2.60;;;18.70;99.90;;;;;;6313708;28;20266;-67
2022/07/25 02:13:24;;;;;;;3.08;2.35;;;18.70;99.90;;;;;;6313584;28;20306;-67
2022/07/25 02:16:29;;;;;;;2.90;2.65;;;18.70;99.90;;;;;;6313558;28;20270;-67
2022/07/25 02:19:34;;;;;;;2.72;2.60;;;18.70;99.90;;;;;;6313498;28;20311;-67
2022/07/25 02:22:41;;;;;;;2.38;2.28;;;18.80;99.90;;;;;;6313302;28;20294;-67
2022/07/25 02:25:46;;;;;;;2.53;2.53;;;18.80;99.90;;;;;;6313813;28;20270;-67
2022/07/25 02:28:52;;;;;;;7.22;2.97;;;18.80;99.90;;;;;;6313685;28;20302;-67
2022/07/25 02:31:57;;;;;;;3.08;2.88;;;18.80;99.90;;;;;;6312836;28;20298;-67
2022/07/25 02:35:03;;;;;;;2.63;2.53;;;18.70;99.90;;;;;;6313672;28;20275;-67
2022/07/25 02:38:19;;;;;;;2.70;2.70;;;18.70;99.90;;;;;;6318856;28;20302;-67
2022/07/25 02:41:25;;;;;;;3.00;2.80;;;18.90;99.90;;;;;;6338153;28;20267;-67
2022/07/25 02:44:29;;;;;;;3.10;2.83;;;18.90;99.90;;;;;;6338309;28;20274;-67
2022/07/25 02:47:35;;;;;;;3.15;2.95;;;18.90;99.90;;;;;;6337614;28;20297;-67
2022/07/25 02:50:40;;;;;;;2.95;2.85;;;18.90;99.90;;;;;;6338215;28;20274;-67
2022/07/25 02:53:47;;;;;;;3.40;2.70;;;18.90;99.90;;;;;;6337360;28;20294;-67
2022/07/25 02:57:01;;;;;;;3.08;2.58;;;18.80;99.90;;;;;;6337506;28;20298;-67
2022/07/25 03:00:08;;;;;;;3.10;2.90;;;18.80;99.90;;;;;;6337364;28;20309;-67
2022/07/25 03:03:15;;;;;;;3.15;2.95;;;18.80;99.90;;;;;;6318279;28;20459;-68
2022/07/25 03:06:21;;;;;;;2.95;2.75;;;18.80;99.90;;;;;;6295125;28;20262;-68
2022/07/25 03:09:28;;;;;;;2.80;2.60;;;18.80;99.90;;;;;;6312082;28;20310;-67
2022/07/25 03:12:33;;;;;;;2.63;2.60;;;18.90;99.90;;;;;;6336150;28;20294;-67
2022/07/25 03:15:39;;;;;;;2.75;2.65;;;18.90;99.90;;;;;;6337617;28;20270;-68
2022/07/25 03:18:45;;;;;;;2.92;2.83;;;19.00;99.90;;;;;;6332236;28;20578;-68
2022/07/25 03:21:50;;;;;;;3.10;2.80;;;19.00;99.90;;;;;;6312217;28;20461;-68
2022/07/25 03:24:56;;;;;;;2.95;2.85;;;19.00;99.90;;;;;;6311126;28;20438;-68
2022/07/25 03:28:02;;;;;;;2.85;2.65;;;18.90;99.90;;;;;;6311680;28;20298;-67
2022/07/25 03:31:08;;;;;;;2.92;2.83;;;19.00;99.90;;;;;;6311721;28;20279;-68
2022/07/25 03:34:13;;;;;;;3.15;3.05;;;19.00;99.90;;;;;;6311529;28;20294;-67
2022/07/25 03:37:18;;;;;;;3.22;2.70;;;19.00;99.90;;;;;;6328486;28;20289;-68
2022/07/25 03:40:25;;;;;;;2.72;2.63;;;19.10;99.90;;;;;;6336277;28;20317;-68
2022/07/25 03:43:31;;;;;;;3.20;2.97;;;19.10;99.90;;;;;;6336271;28;20293;-67
2022/07/25 03:46:36;;;;;;;3.58;3.22;;;19.10;99.90;;;;;;6336594;28;20348;-67
2022/07/25 03:49:42;;;;;;;2.75;2.72;;;19.10;99.90;;;;;;6336156;28;20302;-67
2022/07/25 03:52:47;;;;;;;3.08;2.97;;;19.20;99.90;;;;;;6336218;28;20577;-67
2022/07/25 03:55:54;;;;;;;2.90;2.80;;;19.20;99.90;;;;;;6335516;28;20294;-68
2022/07/25 03:58:59;;;;;;;2.97;2.78;;;19.20;99.90;;;;;;6335941;28;20297;-68
2022/07/25 04:02:04;;;;;;;3.10;3.00;;;19.20;99.90;;;;;;6335820;28;20455;-67
2022/07/25 04:05:11;;;;;;;2.92;2.83;;;19.20;99.90;;;;;;6336371;28;20289;-67
2022/07/25 04:08:17;;;;;;;2.80;2.75;;;19.30;99.90;;;;;;6335708;28;20293;-68
2022/07/25 04:11:24;;;;;;;3.00;2.90;;;19.30;99.90;;;;;;6319444;28;20267;-67
2022/07/25 04:14:29;;;;;;;3.08;2.88;;;19.30;99.90;;;;;;6310090;28;20298;-67
2022/07/25 04:17:34;;;;;;;2.97;2.80;;;19.40;99.90;;;;;;6310520;28;20477;-67
2022/07/25 04:20:43;;;;;;;3.30;3.08;;;19.40;99.90;;;;;;6310578;28;20290;-67
2022/07/25 04:23:49;;;;;;;3.00;2.85;;;19.50;99.90;;;;;;6310670;28;20295;-67
2022/07/25 04:26:56;;;;;;;2.90;2.80;;;19.50;99.90;;;;;;6310309;28;20271;-67
2022/07/25 04:30:01;;;;;;;3.30;3.10;;;19.50;99.90;;;;;;6310650;28;20543;-67
2022/07/25 04:33:07;;;;;;;3.20;2.95;;;19.60;99.90;;;;;;6310157;28;20294;-67
2022/07/25 04:36:12;;;;;;;4.45;3.15;;;19.70;99.90;;;;;;6310764;28;20270;-67
2022/07/25 04:39:17;;;;;;;4.35;3.10;;;19.70;99.90;;;;;;6310191;28;20311;-67
2022/07/25 04:42:24;;;;;;;4.35;2.90;;;19.80;99.90;;;;;;6310213;28;20299;-67
2022/07/25 04:45:29;;;;;;;3.20;3.00;;;19.90;99.90;;;;;;6310442;28;20270;-67
2022/07/25 04:48:35;;;;;;;3.10;3.00;;;19.80;99.90;;;;;;6309911;28;20563;-66
2022/07/25 04:51:40;;;;;;;3.50;3.20;;;19.80;99.90;;;;;;6310392;28;20272;-67
2022/07/25 04:54:45;;;;;;;3.00;2.95;;;19.80;99.90;;;;;;6309873;28;20465;-68
2022/07/25 04:57:52;;;;;;;3.20;3.10;;;19.80;99.90;;;;;;6309994;28;20295;-68
2022/07/25 05:00:58;;;;;;;3.80;3.40;;;19.90;99.90;;;;;;6310142;28;20294;-68
2022/07/25 05:04:03;;;;;;;3.45;3.20;;;20.10;99.90;;;;;;6309895;28;20290;-68
2022/07/25 05:07:09;;;;;;;3.78;3.03;;;20.20;99.90;;;;;;6314360;28;20287;-68
2022/07/25 05:10:15;;;;;;;3.60;3.05;;;20.30;99.90;;;;;;6314934;28;20269;-68
2022/07/25 05:13:22;;;;;;;3.30;3.03;;;20.30;99.90;;;;;;6314655;28;20298;-68
2022/07/25 05:16:27;;;;;;;3.53;3.25;;;20.30;99.90;;;;;;6315685;28;20270;-68
2022/07/25 05:19:32;;;;;;;3.88;3.30;;;20.40;99.90;;;;;;6314737;28;20290;-69
2022/07/25 05:22:37;;;;;;;3.15;3.05;;;20.40;99.90;;;;;;6314199;28;20295;-67
2022/07/25 05:25:43;;;;;;;3.45;3.22;;;20.40;99.90;;;;;;6314699;28;20474;-67
2022/07/25 05:28:49;;;;;;;4.45;3.15;;;20.50;99.90;;;;;;6314543;28;20294;-67
2022/07/25 05:31:54;;;;;;;5.20;3.40;;;20.50;99.90;;;;;;6314275;28;20274;-67
2022/07/25 05:35:00;;;;;;;3.92;3.63;;;20.50;99.90;;;;;;6315165;28;20270;-67
2022/07/25 05:38:06;;;;;;;3.50;3.30;;;20.50;99.90;;;;;;6316612;28;20541;-67
2022/07/25 05:41:11;;;;;;;3.72;3.50;;;20.50;99.90;;;;;;6339475;28;20289;-67
2022/07/25 05:44:18;;;;;;;3.83;3.60;;;20.40;99.90;;;;;;6339122;28;20294;-67
2022/07/25 05:47:24;;;;;;;4.28;3.97;;;20.30;99.90;;;;;;6339239;28;20294;-67
2022/07/25 05:50:29;;;;;;;5.00;3.33;;;20.40;99.90;;;;;;6339672;28;20266;-68
2022/07/25 05:53:35;;;;;;;4.25;3.85;;;20.50;99.90;;;;;;6339127;28;20676;-68
2022/07/25 05:56:40;;;;;;;3.55;3.35;;;20.50;99.90;;;;;;6339569;28;20267;-67
2022/07/25 05:59:47;;;;;;;3.33;3.28;;;20.60;99.90;;;;;;6338278;28;20298;-67
2022/07/25 06:02:53;;;;;;;4.20;3.90;;;20.60;99.90;;;;;;6338281;28;20289;-66
2022/07/25 06:05:59;;;;;;;3.85;3.75;;;20.60;99.90;;;;;;6338645;28;20266;-66
2022/07/25 06:09:05;;;;;;;4.32;3.60;;;20.60;99.90;;;;;;6338594;28;20298;-67
2022/07/25 06:12:13;;;;;;;4.40;4.10;;;20.60;99.90;;;;;;6314661;28;20674;-68
2022/07/25 06:15:20;;;;;;;4.00;3.70;;;20.70;99.90;;;;;;6313529;28;20465;-68
2022/07/25 06:18:31;;;;;;;4.00;3.72;;;20.80;99.90;;;;;;6312502;28;20302;-68
2022/07/25 06:21:36;;;;;;;4.03;3.67;;;20.90;99.90;;;;;;6313698;28;20290;-68
2022/07/25 06:24:42;;;;;;;3.97;3.67;;;20.90;99.90;;;;;;6312942;28;20311;-68
2022/07/25 06:27:47;;;;;;;3.90;3.60;;;20.90;99.90;;;;;;6312558;28;20611;-68
2022/07/25 06:30:55;;;;;;;4.70;4.30;;;20.90;99.90;;;;;;6313407;28;20270;-68
2022/07/25 06:34:00;;;;;;;3.88;3.67;;;20.90;99.90;;;;;;6312786;28;20298;-68
2022/07/25 06:37:05;;;;;;;4.45;4.10;;;21.00;99.90;;;;;;6312317;28;20270;-68
2022/07/25 06:40:11;;;;;;;4.40;4.00;;;21.00;99.90;;;;;;6312857;28;20483;-68
2022/07/25 06:43:17;;;;;;;4.15;3.95;;;21.10;99.90;;;;;;6312743;28;20298;-68
2022/07/25 06:46:25;;;;;;;4.50;4.10;;;21.20;99.90;;;;;;6313171;28;20266;-68
2022/07/25 06:49:31;;;;;;;4.32;4.03;;;21.40;99.90;;;;;;6312532;28;20302;-68
2022/07/25 06:52:36;;;;;;;4.57;4.20;;;21.40;99.90;;;;;;6312389;28;20294;-68
2022/07/25 06:55:41;;;;;;;4.43;3.95;;;21.50;99.90;;;;;;6312681;28;20571;-68
2022/07/25 06:58:47;;;;;;;4.82;4.20;;;21.40;99.90;;;;;;6312055;28;20291;-68
2022/07/25 07:01:54;;;;;;;5.30;3.90;;;21.50;99.90;;;;;;6311671;28;20585;-68
2022/07/25 07:04:59;;;;;;;5.40;4.30;;;21.70;99.90;;;;;;6312533;28;20445;-68
2022/07/25 07:08:05;;;;;;;6.93;4.28;;;21.70;99.90;;;;;;6311903;28;20294;-68
2022/07/25 07:11:12;;;;;;;4.53;4.00;;;21.70;99.90;;;;;;6312245;28;20440;-68
2022/07/25 07:14:17;;;;;;;4.40;4.00;;;21.70;99.90;;;;;;6312169;28;20303;-68
2022/07/25 07:17:24;;;;;;;5.93;4.50;;;21.70;99.90;;;;;;6312221;28;20289;-67
2022/07/25 07:20:30;;;;;;;5.50;4.18;;;21.70;99.90;;;;;;6312149;28;20270;-68
2022/07/25 07:23:35;;;;;;;4.70;4.30;;;21.70;99.90;;;;;;6311961;28;20482;-68
2022/07/25 07:26:43;;;;;;;5.75;4.50;;;21.70;99.90;;;;;;6312227;28;20269;-68
2022/07/25 07:29:49;;;;;;;4.82;4.47;;;21.70;99.90;;;;;;6310616;28;20294;-68
2022/07/25 07:32:56;;;;;;;5.22;4.40;;;21.80;99.90;;;;;;6311251;28;20294;-68
2022/07/25 07:36:01;;;;;;;5.07;4.40;;;21.80;99.90;;;;;;6311950;28;20274;-67
2022/07/25 07:39:07;;;;;;;4.72;4.43;;;21.90;99.90;;;;;;6322540;28;20310;-67
2022/07/25 07:42:13;;;;;;;4.70;4.40;;;22.10;99.90;;;;;;6335784;28;20336;-67
2022/07/25 07:45:21;;;;;;;11.32;4.28;;;22.10;99.90;;;;;;6336475;28;20269;-68
2022/07/25 07:48:28;;;;;;;5.20;3.90;;;22.30;99.90;;;;;;6336150;28;20301;-68
2022/07/25 07:51:34;;;;;;;4.65;4.38;;;22.50;99.90;;;;;;6336621;28;20269;-68
2022/07/25 07:58:06;;;;;;;4.70;4.30;;;22.50;99.90;;;;;;6302888;28;20298;-68
2022/07/25 08:01:12;;;;;;;5.47;4.18;;;22.50;99.90;;;;;;6336580;28;20452;-69
2022/07/25 08:04:18;;;;;;;4.85;4.45;;;22.50;99.90;;;;;;6335691;28;20298;-68
2022/07/25 08:07:23;;;;;;;4.40;3.90;;;22.70;99.90;;;;;;6335713;28;20293;-69
2022/07/25 08:10:32;;;;;;;4.32;3.92;;;22.70;99.90;;;;;;6327396;28;20267;-69
2022/07/25 08:13:37;;;;;;;4.65;4.38;;;22.90;99.90;;;;;;6310352;28;20298;-67
2022/07/25 08:16:43;;;;;;;4.60;3.83;;;23.10;99.90;;;;;;6310872;28;20270;-68
2022/07/25 08:19:49;;;;;;;4.25;4.05;;;23.30;99.70;;;;;;6310619;28;20530;-68
2022/07/25 08:22:55;;;;;;;6.70;4.22;;;23.40;99.40;;;;;;6310017;28;20585;-68
2022/07/25 08:26:01;;;;;;;4.82;4.47;;;23.40;99.30;;;;;;6311038;28;20279;-68
2022/07/25 08:29:06;;;;;;;4.50;4.10;;;23.30;99.10;;;;;;6310252;28;20290;-68
2022/07/25 08:32:31;;;;;;;4.82;4.20;;;23.30;99.00;;;;;;6310145;28;20294;-68
2022/07/25 08:35:38;;;;;;;5.72;4.05;;;23.20;98.90;;;;;;6310443;28;20570;-68
2022/07/25 08:38:44;;;;;;;4.75;4.35;;;23.20;99.00;;;;;;6310237;28;20598;-68
2022/07/25 08:41:50;;;;;;;6.47;4.15;;;23.30;99.10;;;;;;6310533;28;20274;-68
2022/07/25 08:44:59;;;;;;;4.75;4.15;;;23.30;99.10;;;;;;6309744;28;20605;-68
2022/07/25 08:48:06;;;;;;;5.72;4.35;;;23.40;99.00;;;;;;6310295;28;20294;-68
2022/07/25 08:51:13;;;;;;;5.28;3.83;;;23.40;99.20;;;;;;6310685;28;20269;-68
2022/07/25 08:54:19;;;;;;;4.15;3.88;;;23.50;98.90;;;;;;6310227;28;20302;-68
2022/07/25 08:57:26;;;;;;;4.70;4.30;;;23.50;99.10;;;;;;6310088;28;20290;-68
2022/07/25 09:00:32;;;;;;;7.32;4.78;;;23.60;98.70;;;;;;6310451;28;20266;-69
2022/07/25 09:03:37;;;;;;;6.03;4.47;;;23.60;98.90;;;;;;6309526;28;20479;-67
2022/07/25 09:06:51;;;;;;;6.90;4.00;;;23.50;98.20;;;;;;6309941;28;20270;-67
2022/07/25 09:09:56;;;;;;;4.30;3.95;;;23.50;98.70;;;;;;6309338;28;20287;-68
2022/07/25 09:13:06;;;;;;;3.95;3.65;;;23.30;98.60;;;;;;6309577;28;20302;-68
2022/07/25 09:16:12;;;;;;;4.65;4.05;;;23.20;99.00;;;;;;6309958;28;20274;-69
2022/07/25 09:19:21;;;;;;;7.70;4.47;;;23.20;99.30;;;;;;6291980;28;20488;-68
2022/07/25 09:22:29;;;;;;;5.57;4.30;;;23.20;99.10;;;;;;6309916;28;20286;-67
2022/07/25 09:25:35;;;;;;;4.57;4.22;;;23.30;99.50;;;;;;6309663;28;20581;-67
2022/07/25 09:28:41;;;;;;;4.43;4.07;;;23.30;99.40;;;;;;6309521;28;20298;-67
2022/07/25 09:31:47;;;;;;;5.88;4.05;;;23.50;99.20;;;;;;6309886;28;20366;-67
2022/07/25 09:34:52;;;;;;;4.35;4.10;;;23.50;99.10;;;;;;6309311;28;20314;-67
2022/07/25 09:38:10;;;;;;;4.45;4.10;;;23.60;99.30;;;;;;6310440;28;20314;-68
2022/07/25 09:41:15;;;;;;;5.80;4.57;;;23.70;99.10;;;;;;6335407;28;20267;-67
2022/07/25 09:44:21;;;;;;;4.68;4.50;;;23.40;99.20;;;;;;6334668;28;20297;-67
2022/07/25 09:47:27;;;;;;;5.20;4.45;;;23.40;99.60;;;;;;6334546;28;20472;-67
2022/07/25 09:50:34;;;;;;;4.70;4.28;;;23.40;99.80;;;;;;6334880;28;20273;-67
2022/07/25 09:53:41;;;;;;;5.22;4.47;;;23.30;99.50;;;;;;6337564;28;20293;-68
2022/07/25 09:56:46;;;;;;;4.50;4.10;;;23.30;99.30;;;;;;6339609;28;20273;-68
2022/07/25 09:59:52;;;;;;;7.40;4.10;;;23.20;99.40;;;;;;6337947;28;20302;-67
2022/07/25 10:03:21;;;;;;;4.47;4.13;;;23.20;99.50;;;;;;6338460;28;20297;-68
2022/07/25 10:06:45;;;;;;;10.02;3.80;;;23.30;99.50;;;;;;6338778;28;20289;-68
2022/07/25 10:09:55;;;;;;;4.18;3.88;;;23.40;99.50;;;;;;6334888;28;20291;-68
2022/07/25 10:13:03;;;;;;;10.02;4.03;;;23.50;99.80;;;;;;6313516;28;20307;-68
2022/07/25 10:16:17;;;;;;;4.78;4.25;;;23.50;99.30;;;;;;6313580;28;20274;-68
2022/07/25 10:19:40;;;;;;;5.13;3.80;;;23.60;99.70;;;;;;6312996;28;20294;-68
2022/07/25 10:22:53;;;;;;;7.10;4.40;;;23.60;99.40;;;;;;6312465;28;20290;-68
2022/07/25 10:26:09;;;;;;;4.35;3.95;;;23.60;99.00;;;;;;6313164;28;20290;-68
2022/07/25 10:29:16;;;;;;;6.53;4.07;;;23.60;99.30;;;;;;6313196;28;20299;-68
2022/07/25 10:32:26;;;;;;;6.78;4.45;;;23.70;99.00;;;;;;6312740;28;20290;-68
2022/07/25 10:35:32;;;;;;;4.78;4.47;;;23.70;99.30;;;;;;6313313;28;20270;-68
2022/07/25 10:38:40;;;;;;;7.72;4.53;;;23.60;99.30;;;;;;6312730;28;20325;-67
2022/07/25 10:41:52;;;;;;;4.30;3.90;;;23.60;99.40;;;;;;6312611;28;20274;-67
2022/07/25 10:44:57;;;;;;;4.90;4.60;;;23.60;99.40;;;;;;6312218;28;20294;-67
2022/07/25 10:48:08;;;;;;;4.85;4.45;;;23.60;99.40;;;;;;6312220;28;20389;-67
2022/07/25 10:51:14;;;;;;;5.10;4.60;;;23.70;99.00;;;;;;6312848;28;20271;-67
2022/07/25 10:54:22;;;;;;;4.97;4.47;;;23.70;99.10;;;;;;6312201;28;20345;-68
2022/07/25 10:57:29;;;;;;;5.85;4.53;;;23.60;99.10;;;;;;6312393;28;20477;-67
2022/07/25 11:00:43;;;;;;;5.28;4.80;;;23.50;99.00;;;;;;6312437;28;20275;-67
2022/07/25 11:03:49;;;;;;;6.60;5.85;;;23.60;99.10;;;;;;6311847;28;20290;-68
2022/07/25 11:06:54;;;;;;;5.90;5.32;;;23.60;99.00;;;;;;6327685;28;20286;-68
2022/07/25 11:10:03;;;;;;;7.55;4.57;;;23.60;99.20;;;;;;6332079;28;20343;-68
2022/07/25 11:13:14;;;;;;;5.13;4.63;;;23.50;99.20;;;;;;6311849;28;20290;-68
2022/07/25 11:16:27;;;;;;;4.90;4.43;;;23.30;99.10;;;;;;6311834;28;20270;-67
2022/07/25 11:19:32;;;;;;;5.43;4.60;;;23.40;99.30;;;;;;6311732;28;20295;-67
2022/07/25 11:22:38;;;;;;;5.35;4.72;;;23.40;99.20;;;;;;6311893;28;20290;-67
2022/07/25 11:25:43;;;;;;;5.70;4.45;;;23.30;99.50;;;;;;6311994;28;20286;-67
2022/07/25 11:28:50;;;;;;;4.43;4.13;;;23.30;99.30;;;;;;6311595;28;20299;-68
2022/07/25 11:31:58;;;;;;;4.75;4.35;;;23.30;99.10;;;;;;6311276;28;20266;-67
2022/07/25 11:35:04;;;;;;;5.82;4.65;;;23.30;99.00;;;;;;6311708;28;20578;-68
2022/07/25 11:38:13;;;;;;;5.15;4.80;;;23.30;99.10;;;;;;6314171;28;20467;-68
2022/07/25 11:41:29;;;;;;;6.30;4.38;;;23.10;99.30;;;;;;6336701;28;20269;-68
2022/07/25 11:44:38;;;;;;;4.88;4.47;;;23.10;99.90;;;;;;6336274;28;20293;-68
2022/07/25 11:48:04;;;;;;;4.80;4.50;;;23.10;99.70;;;;;;6336110;28;20297;-66
2022/07/25 11:51:13;;;;;;;4.90;4.60;;;23.10;99.80;;;;;;6336771;28;20270;-68
2022/07/25 11:54:23;;;;;;;4.57;4.43;;;23.10;99.60;;;;;;6335927;28;20593;-68
2022/07/25 11:57:31;;;;;;;5.15;4.78;;;23.00;99.60;;;;;;6336047;28;20297;-67
2022/07/25 12:00:41;;;;;;;4.72;4.25;;;22.90;99.50;;;;;;6335914;28;20430;-67
2022/07/25 12:03:48;;;;;;;4.60;4.18;;;22.90;99.90;;;;;;6335626;28;20319;-67
2022/07/25 12:07:04;;;;;;;4.75;4.40;;;22.90;99.70;;;;;;6335324;28;20604;-67
2022/07/25 12:10:15;;;;;;;4.80;4.60;;;22.80;99.90;;;;;;6329076;28;20275;-67
2022/07/25 12:13:25;;;;;;;8.75;4.40;;;22.80;99.90;;;;;;6310554;28;20448;-66
2022/07/25 12:16:31;;;;;;;6.85;4.47;;;22.80;99.90;;;;;;6310210;28;20274;-67
2022/07/25 12:19:40;;;;;;;5.95;4.50;;;22.90;99.90;;;;;;6310114;28;20306;-67
2022/07/25 12:22:48;;;;;;;5.03;4.72;;;22.90;99.90;;;;;;6310410;28;20290;-67
2022/07/25 12:25:54;;;;;;;5.10;4.80;;;22.80;99.90;;;;;;6310285;28;20271;-68
2022/07/25 12:29:00;;;;;;;5.43;5.03;;;22.80;99.90;;;;;;6309938;28;20298;-68
2022/07/25 12:32:07;;;;;;;4.70;4.40;;;22.80;99.90;;;;;;6310082;28;20543;-67
2022/07/25 12:35:14;;;;;;;5.80;4.20;;;22.90;99.90;;;;;;6310760;28;20270;-67
2022/07/25 12:38:19;;;;;;;7.03;4.35;;;23.00;99.90;;;;;;6310069;28;20596;-67
2022/07/25 12:41:25;;;;;;;4.07;3.88;;;23.10;99.90;;;;;;6310434;28;20274;-66
2022/07/25 12:44:30;;;;;;;4.50;4.30;;;23.20;99.90;;;;;;6310012;28;20294;-66
2022/07/25 12:47:37;;;;;;;4.05;3.72;;;23.30;99.90;;;;;;6309765;28;20296;-67
2022/07/25 12:50:43;;;;;;;4.97;4.03;;;23.30;99.90;;;;;;6310673;28;20266;-68
2022/07/25 12:53:48;;;;;;;3.90;3.80;;;23.40;99.90;;;;;;6309977;28;20298;-67
2022/07/25 12:56:53;;;;;;;4.38;4.03;;;23.50;99.90;;;;;;6309349;28;20274;-68
2022/07/25 12:59:58;;;;;;;5.70;3.70;;;23.40;99.90;;;;;;6310056;28;20270;-67
2022/07/25 13:03:05;;;;;;;3.90;3.72;;;23.50;99.90;;;;;;6309551;28;20289;-68
2022/07/25 13:06:10;;;;;;;4.82;4.28;;;23.50;99.90;;;;;;6310483;28;20282;-68
2022/07/25 13:09:16;;;;;;;4.13;3.85;;;23.60;99.90;;;;;;6309713;28;20302;-68
2022/07/25 13:12:22;;;;;;;5.47;3.90;;;23.60;99.90;;;;;;6309693;28;20609;-68
2022/07/25 13:15:29;;;;;;;4.30;4.00;;;23.60;99.80;;;;;;6310678;28;20270;-67
2022/07/25 13:18:35;;;;;;;3.67;3.38;;;23.70;99.30;;;;;;6309750;28;20322;-67
2022/07/25 13:21:41;;;;;;;5.47;4.40;;;23.60;99.30;;;;;;6309775;28;20575;-67
2022/07/25 13:24:46;;;;;;;5.43;3.70;;;23.60;99.10;;;;;;6309911;28;20299;-67
2022/07/25 13:27:51;;;;;;;6.15;3.78;;;23.60;99.10;;;;;;6311338;28;20480;-67
2022/07/25 13:30:57;;;;;;;6.40;3.85;;;23.60;99.20;;;;;;6314521;28;20278;-67
2022/07/25 13:34:04;;;;;;;4.25;3.90;;;23.70;99.10;;;;;;6314824;28;20295;-67
2022/07/25 13:37:11;;;;;;;3.97;3.60;;;23.70;98.80;;;;;;6314017;28;20274;-67
2022/07/25 13:40:17;;;;;;;7.05;3.90;;;23.60;99.10;;;;;;6334597;28;20297;-68
2022/07/25 13:43:22;;;;;;;4.50;4.18;;;23.60;98.90;;;;;;6339187;28;20450;-68
2022/07/25 13:46:28;;;;;;;3.88;3.67;;;23.50;99.20;;;;;;6339706;28;20454;-68
2022/07/25 13:49:35;;;;;;;7.13;3.97;;;23.60;99.40;;;;;;6338536;28;20297;-68
2022/07/25 13:52:40;;;;;;;5.70;3.60;;;23.70;99.00;;;;;;6338914;28;20289;-68
2022/07/25 13:55:46;;;;;;;3.70;3.35;;;23.60;98.90;;;;;;6338864;28;20538;-68
2022/07/25 13:58:51;;;;;;;5.63;4.00;;;23.50;98.90;;;;;;6339053;28;20562;-68
2022/07/25 14:01:56;;;;;;;8.40;3.53;;;23.50;99.30;;;;;;6338866;28;20273;-68
2022/07/25 14:05:04;;;;;;;4.22;3.47;;;23.60;99.30;;;;;;6339156;28;20289;-68
2022/07/25 14:08:11;;;;;;;6.40;3.53;;;23.40;99.80;;;;;;6338062;28;20298;-68
2022/07/25 14:11:17;;;;;;;3.90;3.70;;;23.20;99.90;;;;;;6323164;28;20266;-68
2022/07/25 14:14:22;;;;;;;7.07;3.90;;;23.20;99.90;;;;;;6313490;28;20314;-68
2022/07/25 14:17:27;;;;;;;3.85;3.70;;;23.20;99.80;;;;;;6313271;28;20301;-68
2022/07/25 14:20:36;;;;;;;4.55;4.25;;;23.20;99.90;;;;;;6313884;28;20270;-68
2022/07/25 14:23:41;;;;;;;4.15;3.80;;;23.10;99.90;;;;;;6313263;28;20300;-67
2022/07/25 14:26:47;;;;;;;4.30;4.00;;;23.20;99.80;;;;;;6313751;28;20387;-68
2022/07/25 14:29:53;;;;;;;4.13;3.80;;;23.10;99.90;;;;;;6312764;28;20302;-68
2022/07/25 14:32:59;;;;;;;4.53;4.18;;;23.10;99.90;;;;;;6312835;28;20294;-68
2022/07/25 14:36:07;;;;;;;4.20;4.10;;;23.10;99.90;;;;;;6313182;28;20274;-68
2022/07/25 14:39:12;;;;;;;4.20;3.97;;;23.10;99.90;;;;;;6312394;28;20302;-68
2022/07/25 14:42:17;;;;;;;6.05;4.35;;;23.20;99.90;;;;;;6312836;28;20554;-68
2022/07/25 14:45:23;;;;;;;4.38;4.18;;;23.20;99.90;;;;;;6313320;28;20270;-68
2022/07/25 14:48:29;;;;;;;4.82;4.45;;;23.20;99.90;;;;;;6312763;28;20294;-68
2022/07/25 14:51:35;;;;;;;4.30;4.00;;;23.30;99.90;;;;;;6312741;28;20266;-68
2022/07/25 14:54:41;;;;;;;4.38;4.18;;;23.30;99.90;;;;;;6312411;28;20313;-67
2022/07/25 14:57:46;;;;;;;4.72;3.88;;;23.40;99.90;;;;;;6312115;28;20464;-67
2022/07/25 15:00:51;;;;;;;5.15;4.00;;;23.30;99.90;;;;;;6312566;28;20275;-67
2022/07/25 15:03:57;;;;;;;4.50;4.00;;;23.10;99.90;;;;;;6312217;28;20293;-67
2022/07/25 15:07:03;;;;;;;7.32;3.83;;;23.00;99.90;;;;;;6311451;28;20539;-67
2022/07/25 15:10:10;;;;;;;4.00;3.67;;;23.10;99.90;;;;;;6312013;28;20282;-67
2022/07/25 15:13:16;;;;;;;3.72;3.50;;;23.00;99.90;;;;;;6311754;28;20306;-67
2022/07/25 15:16:35;;;;;;;3.90;3.65;;;23.00;99.90;;;;;;6312350;28;20550;-67
2022/07/25 15:19:41;;;;;;;4.00;3.70;;;23.00;99.90;;;;;;6312070;28;20298;-67
2022/07/25 15:22:47;;;;;;;3.85;3.70;;;23.10;99.90;;;;;;6311853;28;20290;-67
2022/07/25 15:25:53;;;;;;;4.38;4.07;;;23.10;99.90;;;;;;6310855;28;20271;-67
2022/07/25 15:29:09;;;;;;;3.70;3.50;;;23.10;99.90;;;;;;6311893;28;20302;-67
2022/07/25 15:32:16;;;;;;;4.03;3.67;;;23.20;99.90;;;;;;6311813;28;20291;-67
2022/07/25 15:35:21;;;;;;;3.33;3.10;;;23.20;99.90;;;;;;6312048;28;20270;-67
2022/07/25 15:38:29;;;;;;;3.30;3.20;;;23.30;99.90;;;;;;6316675;28;20581;-67
2022/07/25 15:41:35;;;;;;;4.22;3.22;;;23.20;99.90;;;;;;6336964;28;20273;-67
2022/07/25 15:44:40;;;;;;;3.30;3.20;;;23.20;99.90;;;;;;6336302;28;20294;-67
2022/07/25 15:47:50;;;;;;;5.88;2.92;;;23.10;99.80;;;;;;6336580;28;20222;-67
2022/07/25 15:50:57;;;;;;;4.20;3.35;;;23.10;99.70;;;;;;6335894;28;20293;-67
2022/07/25 15:54:05;;;;;;;3.97;2.92;;;23.10;99.70;;;;;;6336367;28;20298;-67
2022/07/25 15:57:11;;;;;;;3.38;2.90;;;23.00;98.70;;;;;;6336020;28;20541;-67
2022/07/25 16:00:17;;;;;;;3.17;3.00;;;23.10;98.70;;;;;;6336102;28;20273;-67
2022/07/25 16:03:22;;;;;;;6.10;3.22;;;23.00;98.40;;;;;;6336027;28;20285;-67
2022/07/25 16:06:28;;;;;;;3.20;3.00;;;23.00;98.20;;;;;;6336361;28;20369;-67
2022/07/25 16:09:35;;;;;;;3.13;3.03;;;23.00;98.00;;;;;;6334525;28;20305;-68
2022/07/25 16:12:40;;;;;;;3.45;3.25;;;23.00;98.20;;;;;;6310281;28;20289;-68
2022/07/25 16:15:45;;;;;;;3.67;3.33;;;23.10;98.30;;;;;;6311203;28;20270;-68